Time;durP1;ratioP1;P1;durP2;ratioP2;P2;SDS_P1;SDS_P2;PMS_P1;PMS_P2;Temp;Humidity;BMP_temperature;BMP_pressure;BME280_temperature;BME280_humidity;BME280_pressure;Samples;Min_cycle;Max_cycle;Signal;HPM_P1;HPM_P2
2023/01/05 00:00:33;;;;;;;31.40;5.90;;;12.00;99.90;;;;;;4132635;28;20485;-72
2023/01/05 00:02:34;;;;;;;28.52;6.10;;;12.00;99.90;;;;;;4145376;28;20156;-72
2023/01/05 00:04:34;;;;;;;29.02;6.22;;;12.00;99.90;;;;;;4141861;28;20041;-72
2023/01/05 00:06:36;;;;;;;23.90;5.70;;;12.00;99.90;;;;;;4139804;28;20110;-72
2023/01/05 00:08:37;;;;;;;30.50;6.57;;;12.00;99.90;;;;;;4144971;28;20037;-72
2023/01/05 00:22:30;;;;;;;22.42;5.50;;;12.00;99.90;;;;;;4138021;28;20466;-73
2023/01/05 00:24:31;;;;;;;32.75;6.18;;;12.00;99.90;;;;;;4132055;28;20037;-72
2023/01/05 00:26:31;;;;;;;31.02;7.05;;;11.90;99.90;;;;;;4143616;28;20485;-70
2023/01/05 00:28:32;;;;;;;23.88;5.25;;;11.90;99.90;;;;;;4144029;28;20033;-72
2023/01/05 00:30:41;;;;;;;27.27;5.45;;;12.00;99.90;;;;;;4141958;28;20046;-72
2023/01/05 00:32:42;;;;;;;24.02;5.35;;;12.00;99.90;;;;;;4142898;28;20445;-72
2023/01/05 00:34:43;;;;;;;18.90;4.80;;;11.90;99.90;;;;;;4144846;28;20026;-73
2023/01/05 00:36:43;;;;;;;21.92;4.88;;;12.00;99.90;;;;;;4137778;28;20092;-73
2023/01/05 00:38:44;;;;;;;26.90;5.18;;;11.90;99.90;;;;;;4141957;28;20384;-73
2023/01/05 00:40:44;;;;;;;31.63;5.80;;;12.00;99.90;;;;;;4131527;28;20034;-73
2023/01/05 00:42:46;;;;;;;22.55;5.35;;;12.00;99.90;;;;;;4139095;28;20033;-73
2023/01/05 00:44:47;;;;;;;19.42;4.90;;;12.00;99.90;;;;;;4136953;28;20077;-73
2023/01/05 00:46:47;;;;;;;20.30;4.60;;;12.00;99.90;;;;;;4136393;28;20041;-73
2023/01/05 00:48:48;;;;;;;23.95;5.55;;;12.00;99.90;;;;;;4141036;28;20497;-73
2023/01/05 00:50:49;;;;;;;22.33;5.28;;;12.00;99.90;;;;;;4144259;28;20026;-73
2023/01/05 00:52:49;;;;;;;26.70;5.75;;;12.00;99.90;;;;;;4144437;28;20052;-73
2023/01/05 00:54:50;;;;;;;29.60;5.55;;;12.00;99.90;;;;;;4144403;28;20137;-73
2023/01/05 00:56:50;;;;;;;18.52;4.65;;;12.00;99.90;;;;;;4137725;28;20057;-73
2023/01/05 00:58:54;;;;;;;22.73;4.53;;;12.00;99.90;;;;;;4136818;28;20045;-73
2023/01/05 01:00:54;;;;;;;24.95;6.00;;;12.00;99.90;;;;;;4138714;28;20034;-72
2023/01/05 01:02:55;;;;;;;22.88;5.07;;;12.00;99.90;;;;;;4139126;28;20080;-72
2023/01/05 01:04:56;;;;;;;24.65;5.78;;;11.90;99.90;;;;;;4139568;28;20026;-73
2023/01/05 01:06:57;;;;;;;24.83;4.55;;;12.00;99.90;;;;;;4138275;28;20057;-73
2023/01/05 01:08:58;;;;;;;30.90;5.40;;;11.90;99.90;;;;;;4144119;28;20033;-73
2023/01/05 01:11:04;;;;;;;23.73;4.72;;;11.90;99.90;;;;;;4143654;28;20030;-73
2023/01/05 01:13:04;;;;;;;21.45;4.22;;;11.90;99.90;;;;;;4143510;28;20080;-72
2023/01/05 01:15:06;;;;;;;27.02;5.10;;;11.90;99.90;;;;;;4118442;28;20042;-74
2023/01/05 01:17:06;;;;;;;21.00;5.07;;;11.90;99.90;;;;;;4142913;28;20026;-73
2023/01/05 01:19:12;;;;;;;24.05;5.10;;;11.90;99.90;;;;;;4136282;28;20092;-73
2023/01/05 01:21:12;;;;;;;20.60;4.97;;;11.90;99.90;;;;;;4143546;28;20044;-73
2023/01/05 01:23:13;;;;;;;32.33;5.70;;;11.80;99.90;;;;;;4144009;28;20113;-73
2023/01/05 01:25:14;;;;;;;23.60;5.22;;;11.80;99.90;;;;;;4143132;28;20508;-73
2023/01/05 01:27:14;;;;;;;23.15;4.68;;;11.80;99.90;;;;;;4142936;28;20045;-73
2023/01/05 01:29:18;;;;;;;25.50;4.90;;;11.80;99.90;;;;;;4140015;28;20038;-73
2023/01/05 01:31:18;;;;;;;24.27;5.38;;;11.80;99.90;;;;;;4139058;28;20057;-73
2023/01/05 01:33:19;;;;;;;23.98;5.10;;;11.80;99.90;;;;;;4141732;28;20034;-73
2023/01/05 01:35:20;;;;;;;21.52;4.82;;;11.80;99.90;;;;;;4129100;28;20500;-73
2023/01/05 01:37:20;;;;;;;26.58;5.40;;;11.80;99.90;;;;;;4140344;28;20033;-73
2023/01/05 01:39:21;;;;;;;24.52;5.13;;;11.80;99.90;;;;;;4141547;28;20465;-73
2023/01/05 01:41:22;;;;;;;25.10;5.40;;;11.80;99.90;;;;;;4141758;28;20033;-73
2023/01/05 01:43:41;;;;;;;29.77;5.40;;;11.80;99.90;;;;;;4133902;28;20049;-73
2023/01/05 01:45:42;;;;;;;24.88;4.97;;;11.80;99.90;;;;;;4136347;28;20039;-73
2023/01/05 01:47:49;;;;;;;27.15;5.15;;;11.80;99.90;;;;;;4132288;28;20044;-73
2023/01/05 01:49:50;;;;;;;24.17;4.90;;;11.80;99.90;;;;;;4140140;28;20030;-73
2023/01/05 01:51:51;;;;;;;27.80;5.50;;;11.70;99.90;;;;;;4131463;28;20485;-73
2023/01/05 01:53:56;;;;;;;23.33;5.35;;;11.70;99.90;;;;;;4138574;28;20027;-73
2023/01/05 01:55:59;;;;;;;22.08;4.38;;;11.70;99.90;;;;;;4142078;28;20034;-73
2023/01/05 01:58:01;;;;;;;;;;;11.70;99.90;;;;;;4143543;28;20026;-73
2023/01/05 02:00:05;;;;;;;14.00;3.95;;;11.70;99.90;;;;;;4143552;28;20323;-73
2023/01/05 02:02:08;;;;;;;24.13;5.47;;;11.70;99.90;;;;;;4126336;28;20101;-73
2023/01/05 02:04:10;;;;;;;22.25;4.47;;;11.70;99.90;;;;;;4131292;28;20031;-74
2023/01/05 02:06:11;;;;;;;24.58;5.25;;;11.70;99.90;;;;;;4138919;28;20034;-75
2023/01/05 02:08:14;;;;;;;23.85;5.22;;;11.70;99.90;;;;;;4139770;28;20026;-75
2023/01/05 02:10:16;;;;;;;;;;;11.60;99.90;;;;;;4134096;28;20067;-74
2023/01/05 02:12:25;;;;;;;19.45;4.57;;;11.60;99.90;;;;;;4146836;28;20375;-75
2023/01/05 02:15:07;;;;;;;25.98;5.43;;;11.60;99.90;;;;;;4141668;28;20049;-73
2023/01/05 02:17:17;;;;;;;30.88;5.75;;;11.50;99.90;;;;;;4134975;28;20088;-73
2023/01/05 02:19:33;;;;;;;21.15;5.68;;;11.50;99.90;;;;;;4135315;28;20044;-74
2023/01/05 02:22:17;;;;;;;29.58;6.45;;;11.50;99.90;;;;;;4139088;28;20034;-74
2023/01/05 02:24:55;;;;;;;31.70;6.43;;;11.50;99.90;;;;;;4142520;28;20030;-75
2023/01/05 02:27:31;;;;;;;19.55;4.50;;;11.50;99.90;;;;;;4133964;28;20288;-74
2023/01/05 02:30:00;;;;;;;25.75;5.38;;;11.50;99.90;;;;;;4139553;28;20081;-74
2023/01/05 02:32:22;;;;;;;25.05;5.68;;;11.50;99.90;;;;;;4137184;28;20445;-74
2023/01/05 02:34:33;;;;;;;23.95;5.25;;;11.50;99.90;;;;;;4142896;28;20106;-75
2023/01/05 02:36:52;;;;;;;26.02;5.00;;;11.40;99.90;;;;;;4130751;28;20544;-72
2023/01/05 02:39:12;;;;;;;32.53;5.93;;;11.50;99.90;;;;;;4144012;28;20037;-75
2023/01/05 02:41:29;;;;;;;28.48;5.45;;;11.40;99.90;;;;;;4127708;28;20053;-75
2023/01/05 02:43:29;;;;;;;21.70;5.10;;;11.40;99.90;;;;;;4128297;28;20019;-75
2023/01/05 02:45:30;;;;;;;25.95;5.05;;;11.40;99.90;;;;;;4139915;28;20034;-75
2023/01/05 02:47:36;;;;;;;23.90;6.00;;;11.50;99.90;;;;;;4142134;28;20076;-75
2023/01/05 02:49:39;;;;;;;27.38;5.47;;;11.40;99.90;;;;;;4144479;28;20038;-74
2023/01/05 02:51:45;;;;;;;34.70;6.07;;;11.50;99.90;;;;;;4145506;28;20054;-75
2023/01/05 02:53:52;;;;;;;29.88;5.70;;;11.40;99.90;;;;;;4146780;28;20037;-75
2023/01/05 02:56:06;;;;;;;22.85;5.28;;;11.40;99.90;;;;;;4147211;28;20428;-75
2023/01/05 02:58:13;;;;;;;35.65;6.35;;;11.40;99.90;;;;;;4146521;28;20045;-75
2023/01/05 03:00:38;;;;;;;20.63;4.53;;;11.40;99.90;;;;;;4145956;28;20034;-75
2023/01/05 03:02:42;;;;;;;29.90;5.90;;;11.40;99.90;;;;;;4132985;28;20076;-75
2023/01/05 03:05:03;;;;;;;18.33;4.47;;;11.40;99.90;;;;;;4133181;28;20503;-75
2023/01/05 03:07:07;;;;;;;26.67;5.38;;;11.40;99.90;;;;;;4141989;28;20057;-70
2023/01/05 03:09:07;;;;;;;21.92;4.60;;;11.40;99.90;;;;;;4147337;28;20134;-75
2023/01/05 03:13:42;;;;;;;28.75;5.40;;;11.40;99.90;;;;;;4146681;28;20057;-74
2023/01/05 03:15:45;;;;;;;25.13;5.22;;;11.40;99.90;;;;;;4144738;28;20050;-75
2023/01/05 03:17:50;;;;;;;22.85;5.05;;;11.30;99.90;;;;;;4146759;28;20492;-76
2023/01/05 03:19:52;;;;;;;16.70;4.35;;;11.30;99.90;;;;;;4147309;28;20493;-75
2023/01/05 03:36:39;;;;;;;23.05;5.53;;;11.30;99.90;;;;;;4140630;28;20370;-75
2023/01/05 03:38:44;;;;;;;30.10;6.10;;;11.30;99.90;;;;;;4146167;28;20033;-74
2023/01/05 03:40:46;;;;;;;30.05;6.15;;;11.20;99.90;;;;;;4146416;28;20484;-75
2023/01/05 03:42:47;;;;;;;29.30;5.87;;;11.30;99.90;;;;;;4147012;28;20033;-75
2023/01/05 03:44:48;;;;;;;23.52;5.20;;;11.30;99.90;;;;;;4146921;28;20372;-74
2023/01/05 03:46:50;;;;;;;31.67;6.82;;;11.20;99.90;;;;;;4143726;28;20026;-74
2023/01/05 03:48:50;;;;;;;28.15;5.85;;;11.30;99.90;;;;;;4147002;28;20054;-76
2023/01/05 03:50:52;;;;;;;25.13;5.75;;;11.30;99.90;;;;;;4146384;28;20087;-75
2023/01/05 03:52:52;;;;;;;20.40;4.95;;;11.30;99.90;;;;;;4146819;28;20096;-75
2023/01/05 03:54:53;;;;;;;27.38;5.57;;;11.30;99.90;;;;;;4144973;28;20038;-75
2023/01/05 03:56:53;;;;;;;22.10;6.07;;;11.30;99.90;;;;;;4145171;28;20492;-75
2023/01/05 03:58:54;;;;;;;25.25;5.35;;;11.30;99.90;;;;;;4146226;28;20050;-74
2023/01/05 04:00:55;;;;;;;32.90;6.22;;;11.30;99.90;;;;;;4140542;28;20045;-75
2023/01/05 04:02:55;;;;;;;25.77;5.65;;;11.30;99.90;;;;;;4145579;28;20062;-75
2023/01/05 04:04:56;;;;;;;23.17;4.78;;;11.30;99.90;;;;;;4146422;28;20026;-71
2023/01/05 04:06:56;;;;;;;24.77;5.57;;;11.30;99.90;;;;;;4145168;28;20513;-73
2023/01/05 04:08:57;;;;;;;24.13;6.00;;;11.30;99.90;;;;;;4146622;28;20026;-74
2023/01/05 04:11:12;;;;;;;26.17;4.97;;;11.30;99.90;;;;;;4145840;28;20084;-74
2023/01/05 04:13:13;;;;;;;31.77;5.68;;;11.30;99.90;;;;;;4115651;28;20046;-75
2023/01/05 04:15:14;;;;;;;25.33;5.35;;;11.20;99.90;;;;;;4117848;28;20048;-75
2023/01/05 04:17:14;;;;;;;23.00;5.03;;;11.30;99.90;;;;;;4138687;28;20045;-75
2023/01/05 04:19:15;;;;;;;26.50;5.38;;;11.30;99.90;;;;;;4145746;28;20038;-74
2023/01/05 04:21:15;;;;;;;34.13;5.70;;;11.30;99.90;;;;;;4144811;28;20088;-75
2023/01/05 04:23:16;;;;;;;28.77;5.75;;;11.20;99.90;;;;;;4146436;28;20041;-75
2023/01/05 04:25:16;;;;;;;25.20;5.32;;;11.20;99.90;;;;;;4145693;28;20132;-75
2023/01/05 04:27:17;;;;;;;34.78;5.35;;;11.20;99.90;;;;;;4145363;28;20030;-74
2023/01/05 04:29:17;;;;;;;27.35;5.07;;;11.20;99.90;;;;;;4146272;28;20033;-75
2023/01/05 04:31:18;;;;;;;26.38;5.10;;;11.20;99.90;;;;;;4144832;28;20084;-75
2023/01/05 04:33:20;;;;;;;29.67;6.20;;;11.20;99.90;;;;;;4146211;28;20045;-75
2023/01/05 04:35:20;;;;;;;22.17;5.33;;;11.20;99.90;;;;;;4145581;28;20030;-75
2023/01/05 04:37:22;;;;;;;28.08;5.90;;;11.20;99.90;;;;;;4144879;28;20057;-75
2023/01/05 04:39:22;;;;;;;22.08;5.22;;;11.20;99.90;;;;;;4146283;28;20169;-75
2023/01/05 04:41:23;;;;;;;26.48;5.35;;;11.20;99.90;;;;;;4145602;28;20029;-74
2023/01/05 04:43:23;;;;;;;22.27;5.13;;;11.20;99.90;;;;;;4145176;28;20364;-75
2023/01/05 04:45:24;;;;;;;20.85;4.53;;;11.20;99.90;;;;;;4142761;28;20042;-75
2023/01/05 04:47:24;;;;;;;24.85;5.35;;;11.20;99.90;;;;;;4144473;28;20050;-74
2023/01/05 04:49:25;;;;;;;31.23;5.75;;;11.20;99.90;;;;;;4146065;28;20540;-74
2023/01/05 04:51:25;;;;;;;29.73;5.47;;;11.20;99.90;;;;;;4144118;28;20484;-74
2023/01/05 04:53:26;;;;;;;19.77;4.57;;;11.20;99.90;;;;;;4145908;28;20100;-74
2023/01/05 04:55:27;;;;;;;19.20;5.00;;;11.20;99.90;;;;;;4145221;28;20029;-74
2023/01/05 04:57:27;;;;;;;25.52;5.30;;;11.20;99.90;;;;;;4144996;28;20088;-72
2023/01/05 04:59:28;;;;;;;23.85;5.00;;;11.20;99.90;;;;;;4145909;28;20030;-73
2023/01/05 05:01:28;;;;;;;23.10;4.85;;;11.20;99.90;;;;;;4141187;28;20773;-74
2023/01/05 05:03:29;;;;;;;25.25;4.78;;;11.20;99.90;;;;;;4150639;28;20026;-75
2023/01/05 05:05:29;;;;;;;21.40;5.15;;;11.20;99.90;;;;;;4155750;28;20124;-73
2023/01/05 05:07:30;;;;;;;26.80;5.22;;;11.20;99.90;;;;;;4150219;28;20040;-73
2023/01/05 05:09:30;;;;;;;28.58;5.82;;;11.20;99.90;;;;;;4143863;28;20170;-75
2023/01/05 05:11:31;;;;;;;27.83;5.93;;;11.20;99.90;;;;;;4134413;28;20026;-74
2023/01/05 05:13:31;;;;;;;26.58;4.82;;;11.20;99.90;;;;;;4137701;28;20121;-75
2023/01/05 05:15:32;;;;;;;29.88;6.18;;;11.10;99.90;;;;;;4143233;28;20046;-75
2023/01/05 05:17:33;;;;;;;32.35;5.13;;;11.10;99.90;;;;;;4145542;28;20443;-74
2023/01/05 05:19:34;;;;;;;33.35;5.95;;;11.10;99.90;;;;;;4144930;28;20432;-74
2023/01/05 05:21:34;;;;;;;20.92;4.07;;;11.10;99.90;;;;;;4145018;28;20096;-74
2023/01/05 05:23:35;;;;;;;25.38;4.82;;;11.10;99.90;;;;;;4146025;28;20120;-74
2023/01/05 05:25:35;;;;;;;24.67;5.20;;;11.10;99.90;;;;;;4151196;28;20026;-71
2023/01/05 05:27:36;;;;;;;24.60;4.75;;;11.10;99.90;;;;;;4144887;28;20044;-73
2023/01/05 05:29:36;;;;;;;19.30;4.50;;;11.10;99.90;;;;;;4145408;28;20030;-74
2023/01/05 05:31:37;;;;;;;27.92;5.32;;;11.10;99.90;;;;;;4142367;28;20030;-73
2023/01/05 05:33:38;;;;;;;23.08;4.47;;;11.10;99.90;;;;;;4143586;28;20053;-73
2023/01/05 05:35:38;;;;;;;21.73;4.70;;;11.10;99.90;;;;;;4144900;28;20034;-74
2023/01/05 05:37:39;;;;;;;28.77;5.70;;;11.10;99.90;;;;;;4144778;28;20504;-74
2023/01/05 05:39:39;;;;;;;28.30;5.40;;;11.10;99.90;;;;;;4145167;28;20037;-74
2023/01/05 05:41:40;;;;;;;14.80;3.95;;;11.10;99.90;;;;;;4155500;28;20057;-73
2023/01/05 05:43:41;;;;;;;23.30;4.72;;;11.00;99.90;;;;;;4148453;28;20040;-73
2023/01/05 05:45:42;;;;;;;26.02;5.60;;;11.10;99.90;;;;;;4140959;28;20112;-74
2023/01/05 05:47:42;;;;;;;32.90;6.38;;;11.10;99.90;;;;;;4147207;28;20033;-72
2023/01/05 05:49:43;;;;;;;22.77;4.68;;;11.10;99.90;;;;;;4149632;28;20148;-73
2023/01/05 05:51:44;;;;;;;21.52;4.65;;;11.00;99.90;;;;;;4144797;28;20393;-73
2023/01/05 05:53:44;;;;;;;30.70;5.78;;;11.10;99.90;;;;;;4144894;28;20111;-73
2023/01/05 05:55:49;;;;;;;25.92;4.68;;;11.00;99.90;;;;;;4144623;28;20038;-73
2023/01/05 05:57:49;;;;;;;26.65;5.63;;;11.00;99.90;;;;;;4148179;28;20033;-73
2023/01/05 05:59:50;;;;;;;26.73;5.60;;;11.10;99.90;;;;;;4147033;28;20036;-73
2023/01/05 06:01:51;;;;;;;21.67;4.95;;;11.10;99.90;;;;;;4148294;28;20030;-73
2023/01/05 06:03:51;;;;;;;28.73;5.82;;;11.00;99.90;;;;;;4160410;28;20538;-73
2023/01/05 06:05:52;;;;;;;21.65;4.72;;;11.00;99.90;;;;;;4145916;28;20046;-73
2023/01/05 06:07:53;;;;;;;24.02;4.65;;;11.00;99.90;;;;;;4147390;28;20172;-73
2023/01/05 06:09:54;;;;;;;23.92;5.13;;;11.00;99.90;;;;;;4145012;28;20030;-73
2023/01/05 06:11:54;;;;;;;33.92;6.18;;;11.00;99.90;;;;;;4144530;28;20088;-72
2023/01/05 06:13:55;;;;;;;25.92;5.72;;;11.00;99.90;;;;;;4144850;28;20121;-72
2023/01/05 06:15:55;;;;;;;24.50;4.93;;;11.00;99.90;;;;;;4141574;28;22330;-72
2023/01/05 06:17:56;;;;;;;25.13;4.53;;;11.00;99.90;;;;;;4142580;28;20074;-71
2023/01/05 06:19:56;;;;;;;28.33;4.97;;;10.90;99.90;;;;;;4144745;28;20041;-71
2023/01/05 06:21:57;;;;;;;19.42;4.70;;;10.90;99.90;;;;;;4142305;28;20042;-72
2023/01/05 06:23:58;;;;;;;30.27;6.28;;;10.90;99.90;;;;;;4141849;28;20026;-72
2023/01/05 06:25:58;;;;;;;30.17;5.53;;;10.90;99.90;;;;;;4142926;28;20088;-70
2023/01/05 06:27:59;;;;;;;30.92;5.22;;;10.90;99.90;;;;;;4147081;28;20087;-70
2023/01/05 06:30:00;;;;;;;21.13;4.55;;;10.90;99.90;;;;;;4147880;28;20049;-72
2023/01/05 06:32:00;;;;;;;25.45;5.25;;;10.90;99.90;;;;;;4148780;28;20539;-71
2023/01/05 06:34:01;;;;;;;25.02;5.38;;;10.90;99.90;;;;;;4156724;28;20064;-71
2023/01/05 06:36:01;;;;;;;31.10;5.35;;;10.90;99.90;;;;;;4149007;28;20062;-71
2023/01/05 06:38:02;;;;;;;25.40;5.45;;;10.90;99.90;;;;;;4146577;28;20409;-71
2023/01/05 06:40:03;;;;;;;33.15;5.70;;;10.80;99.90;;;;;;4149116;28;20037;-71
2023/01/05 06:42:04;;;;;;;20.17;5.00;;;10.80;99.90;;;;;;4146743;28;20033;-71
2023/01/05 06:44:05;;;;;;;23.13;5.35;;;10.80;99.90;;;;;;4142728;28;20038;-71
2023/01/05 06:46:06;;;;;;;25.10;5.55;;;10.80;99.90;;;;;;4144777;28;20034;-71
2023/01/05 06:48:07;;;;;;;23.38;5.38;;;10.80;99.90;;;;;;4146864;28;20068;-70
2023/01/05 06:50:08;;;;;;;25.55;5.03;;;10.80;99.90;;;;;;4150740;28;20056;-72
2023/01/05 06:52:08;;;;;;;28.63;5.75;;;10.80;99.90;;;;;;4146709;28;20038;-71
2023/01/05 06:54:09;;;;;;;34.55;6.00;;;10.80;99.90;;;;;;4147668;28;20405;-71
2023/01/05 06:56:10;;;;;;;38.75;6.18;;;10.80;99.90;;;;;;4144531;28;20034;-71
2023/01/05 06:58:11;;;;;;;23.20;4.88;;;10.80;99.90;;;;;;4150144;28;20121;-71
2023/01/05 07:00:13;;;;;;;30.45;5.20;;;10.80;99.90;;;;;;4151660;28;20440;-72
2023/01/05 07:02:15;;;;;;;27.75;5.07;;;10.80;99.90;;;;;;4153485;28;20030;-71
2023/01/05 07:04:16;;;;;;;24.40;5.35;;;10.80;99.90;;;;;;4147614;28;20034;-71
2023/01/05 07:06:16;;;;;;;16.73;4.63;;;10.80;99.90;;;;;;4146325;28;20041;-72
2023/01/05 07:08:17;;;;;;;20.92;4.30;;;10.80;99.90;;;;;;4145757;28;20062;-72
2023/01/05 07:10:17;;;;;;;26.55;5.60;;;10.80;99.90;;;;;;4145471;28;20034;-72
2023/01/05 07:12:18;;;;;;;24.80;5.00;;;10.80;99.90;;;;;;4141509;28;20037;-73
2023/01/05 07:14:19;;;;;;;21.48;5.00;;;10.80;99.90;;;;;;4158434;28;20053;-72
2023/01/05 07:16:19;;;;;;;22.23;5.07;;;10.90;99.90;;;;;;4144738;28;20102;-72
2023/01/05 07:18:20;;;;;;;22.10;4.68;;;10.80;99.90;;;;;;4143585;28;20404;-72
2023/01/05 07:20:20;;;;;;;19.92;4.72;;;10.80;99.90;;;;;;4148662;28;20033;-73
2023/01/05 07:22:21;;;;;;;27.08;4.68;;;10.90;99.90;;;;;;4143576;28;20093;-72
2023/01/05 07:24:22;;;;;;;19.13;5.22;;;10.80;99.90;;;;;;4154683;28;20021;-71
2023/01/05 07:26:22;;;;;;;26.52;5.50;;;10.90;99.90;;;;;;4146397;28;20041;-72
2023/01/05 07:28:23;;;;;;;27.00;4.90;;;10.90;99.90;;;;;;4146970;28;20381;-72
2023/01/05 07:30:24;;;;;;;24.13;4.82;;;10.90;99.90;;;;;;4146889;28;20400;-72
2023/01/05 07:32:24;;;;;;;23.92;5.10;;;10.90;99.90;;;;;;4157325;28;20128;-71
2023/01/05 07:34:25;;;;;;;21.23;4.68;;;10.90;99.90;;;;;;4155600;28;20489;-71
2023/01/05 07:36:25;;;;;;;19.55;4.30;;;10.90;99.90;;;;;;4148801;28;20036;-71
2023/01/05 07:38:26;;;;;;;24.67;4.82;;;10.90;99.90;;;;;;4146521;28;20037;-71
2023/01/05 07:40:27;;;;;;;25.98;5.43;;;10.90;99.90;;;;;;4146433;28;22642;-71
2023/01/05 07:42:29;;;;;;;23.95;5.28;;;10.90;99.90;;;;;;4144995;28;20075;-71
2023/01/05 07:44:30;;;;;;;20.38;4.82;;;10.90;99.90;;;;;;4142884;28;20049;-69
2023/01/05 07:46:30;;;;;;;34.38;5.45;;;10.90;99.90;;;;;;4144200;28;20087;-71
2023/01/05 07:48:31;;;;;;;24.15;5.85;;;10.90;99.90;;;;;;4144207;28;20022;-71
2023/01/05 07:50:32;;;;;;;20.50;4.25;;;10.90;99.90;;;;;;4140614;28;20057;-71
2023/01/05 07:52:32;;;;;;;24.88;5.15;;;10.90;99.90;;;;;;4144056;28;20041;-71
2023/01/05 07:54:33;;;;;;;28.92;5.00;;;10.90;99.90;;;;;;4143803;28;20168;-73
2023/01/05 07:56:33;;;;;;;25.20;4.47;;;10.90;99.90;;;;;;4141562;28;20056;-73
2023/01/05 07:58:34;;;;;;;23.92;4.80;;;10.90;99.90;;;;;;4144170;28;20488;-74
2023/01/05 08:00:35;;;;;;;26.23;5.03;;;11.00;99.90;;;;;;4141505;28;20077;-73
2023/01/05 08:02:35;;;;;;;16.55;4.78;;;11.00;99.90;;;;;;4145152;28;20025;-74
2023/01/05 08:04:36;;;;;;;29.45;5.07;;;11.00;99.90;;;;;;4137575;28;20431;-74
2023/01/05 08:06:36;;;;;;;23.60;5.25;;;11.00;99.90;;;;;;4139226;28;20046;-74
2023/01/05 08:08:37;;;;;;;26.88;5.70;;;11.00;99.90;;;;;;4141793;28;20046;-73
2023/01/05 08:10:39;;;;;;;31.92;5.70;;;10.90;99.90;;;;;;4140845;28;20060;-72
2023/01/05 08:14:59;;;;;;;25.95;6.30;;;11.00;99.90;;;;;;4141261;28;20109;-74
2023/01/05 08:17:00;;;;;;;22.17;4.40;;;11.00;99.90;;;;;;4139287;28;20041;-74
2023/01/05 08:19:00;;;;;;;26.73;6.22;;;11.00;99.90;;;;;;4140315;28;20049;-71
2023/01/05 08:21:04;;;;;;;21.83;4.53;;;11.00;99.90;;;;;;4140958;28;20501;-73
2023/01/05 08:23:05;;;;;;;25.13;4.70;;;11.00;99.90;;;;;;4143355;28;20480;-73
2023/01/05 08:25:06;;;;;;;25.55;5.15;;;11.00;99.90;;;;;;4141480;28;20030;-74
2023/01/05 08:27:06;;;;;;;34.15;6.43;;;11.00;99.90;;;;;;4142517;28;20408;-74
2023/01/05 08:29:07;;;;;;;27.05;5.78;;;11.00;99.90;;;;;;4143143;28;20702;-74
2023/01/05 08:31:20;;;;;;;22.20;5.05;;;11.00;99.90;;;;;;4140664;28;20046;-74
2023/01/05 08:33:21;;;;;;;20.80;4.95;;;11.00;99.90;;;;;;4139566;28;20042;-74
2023/01/05 08:35:22;;;;;;;26.02;5.15;;;11.00;99.90;;;;;;4138335;28;21807;-74
2023/01/05 08:37:22;;;;;;;30.15;6.15;;;11.00;99.90;;;;;;4138749;28;20514;-74
2023/01/05 08:39:23;;;;;;;26.88;6.05;;;11.00;99.90;;;;;;4142127;28;20053;-73
2023/01/05 08:41:27;;;;;;;28.00;5.78;;;11.00;99.90;;;;;;4139500;28;20037;-73
2023/01/05 08:43:27;;;;;;;25.20;5.35;;;11.00;99.90;;;;;;4137936;28;20527;-75
2023/01/05 08:45:28;;;;;;;30.35;6.13;;;11.10;99.90;;;;;;4141070;28;20128;-73
2023/01/05 08:47:29;;;;;;;26.52;5.68;;;11.00;99.90;;;;;;4140955;28;20065;-73
2023/01/05 08:49:29;;;;;;;31.83;5.75;;;11.00;99.90;;;;;;4141255;28;20493;-73
2023/01/05 08:51:31;;;;;;;32.53;5.40;;;11.00;99.90;;;;;;4140908;28;20462;-74
2023/01/05 08:53:32;;;;;;;30.63;5.45;;;11.00;99.90;;;;;;4138939;28;20827;-72
2023/01/05 08:55:33;;;;;;;28.83;5.57;;;11.00;99.90;;;;;;4139400;28;20065;-73
2023/01/05 08:57:33;;;;;;;25.55;5.25;;;11.00;99.90;;;;;;4142152;28;20041;-73
2023/01/05 08:59:34;;;;;;;31.83;6.05;;;11.00;99.90;;;;;;4141645;28;20077;-74
2023/01/05 09:01:35;;;;;;;26.98;5.75;;;11.00;99.90;;;;;;4139248;28;20088;-73
2023/01/05 09:03:36;;;;;;;24.83;4.82;;;11.10;99.90;;;;;;4141092;28;20042;-73
2023/01/05 09:05:37;;;;;;;25.08;5.22;;;11.10;99.90;;;;;;4141080;28;20484;-73
2023/01/05 09:07:37;;;;;;;30.17;5.68;;;11.10;99.90;;;;;;4139354;28;20133;-72
2023/01/05 09:09:38;;;;;;;34.25;6.35;;;11.10;99.90;;;;;;4139599;28;20049;-73
2023/01/05 09:11:38;;;;;;;30.75;6.60;;;11.10;99.90;;;;;;4141223;28;20034;-69
2023/01/05 09:13:40;;;;;;;30.08;6.45;;;11.10;99.90;;;;;;4140531;28;20050;-71
2023/01/05 09:15:40;;;;;;;25.90;5.97;;;11.10;99.90;;;;;;4140972;28;20042;-72
2023/01/05 09:17:41;;;;;;;25.48;5.65;;;11.10;99.90;;;;;;4140664;28;20041;-72
2023/01/05 09:19:41;;;;;;;22.98;4.90;;;11.10;99.90;;;;;;4139822;28;20092;-72
2023/01/05 09:21:43;;;;;;;21.73;4.95;;;11.10;99.90;;;;;;4122921;28;20142;-73
2023/01/05 09:23:44;;;;;;;30.23;6.35;;;11.10;99.90;;;;;;4138644;28;20042;-72
2023/01/05 09:25:44;;;;;;;31.10;5.78;;;11.10;99.90;;;;;;4127935;28;20540;-73
2023/01/05 09:27:45;;;;;;;29.30;5.63;;;11.10;99.90;;;;;;4136225;28;20458;-73
2023/01/05 09:29:45;;;;;;;24.35;5.03;;;11.10;99.90;;;;;;4140864;28;20468;-73
2023/01/05 09:31:46;;;;;;;23.23;4.85;;;11.10;99.90;;;;;;4140369;28;20432;-74
2023/01/05 09:33:47;;;;;;;28.30;5.60;;;11.20;99.90;;;;;;4132767;28;21019;-73
2023/01/05 09:35:54;;;;;;;27.30;6.13;;;11.20;99.90;;;;;;4134178;28;20122;-73
2023/01/05 09:37:55;;;;;;;26.25;5.80;;;11.20;99.90;;;;;;4138141;28;20034;-73
2023/01/05 09:39:55;;;;;;;27.95;6.93;;;11.20;99.90;;;;;;4132796;28;20049;-73
2023/01/05 09:42:00;;;;;;;27.50;6.05;;;11.20;99.90;;;;;;4129420;28;20053;-74
2023/01/05 09:44:21;;;;;;;34.40;6.07;;;11.10;99.90;;;;;;4137084;28;20030;-73
2023/01/05 09:46:26;;;;;;;28.08;5.75;;;11.20;99.90;;;;;;4130476;28;20553;-73
2023/01/05 09:48:35;;;;;;;24.67;5.18;;;11.20;99.90;;;;;;4139765;28;20105;-73
2023/01/05 09:50:36;;;;;;;32.92;6.25;;;11.20;99.90;;;;;;4130744;28;20038;-73
2023/01/05 09:52:36;;;;;;;25.77;5.50;;;11.20;99.90;;;;;;4136546;28;20053;-73
2023/01/05 09:54:38;;;;;;;23.35;5.07;;;11.20;99.90;;;;;;4132752;28;20030;-72
2023/01/05 09:56:43;;;;;;;22.13;4.85;;;11.20;99.90;;;;;;4136834;28;20037;-70
2023/01/05 09:58:45;;;;;;;26.13;4.82;;;11.30;99.90;;;;;;4137709;28;20092;-72
2023/01/05 10:01:12;;;;;;;26.27;5.10;;;11.30;99.90;;;;;;4125925;28;20041;-73
2023/01/05 10:03:19;;;;;;;29.50;5.97;;;11.20;99.90;;;;;;4136874;28;20581;-73
2023/01/05 10:05:21;;;;;;;26.00;5.93;;;11.30;99.90;;;;;;4140001;28;20030;-73
2023/01/05 10:07:41;;;;;;;29.00;6.53;;;11.30;99.90;;;;;;4140533;28;20030;-73
2023/01/05 10:09:43;;;;;;;29.55;5.47;;;11.30;99.90;;;;;;4141150;28;20061;-74
2023/01/05 10:14:34;;;;;;;30.63;5.75;;;11.30;99.90;;;;;;4102940;28;1059829;-73
2023/01/05 10:16:36;;;;;;;26.67;5.45;;;11.30;99.90;;;;;;4140233;28;20042;-73
2023/01/05 10:18:36;;;;;;;25.30;5.03;;;11.40;99.90;;;;;;4141199;28;20374;-73
2023/01/05 10:20:45;;;;;;;25.63;5.57;;;11.40;99.90;;;;;;4140071;28;20033;-73
2023/01/05 10:23:13;;;;;;;29.25;6.30;;;11.40;99.90;;;;;;4142083;28;20045;-73
2023/01/05 10:25:28;;;;;;;25.42;5.00;;;11.40;99.90;;;;;;4138044;28;20042;-73
2023/01/05 10:28:02;;;;;;;30.33;5.88;;;11.40;99.90;;;;;;4139164;28;20397;-73
2023/01/05 10:30:09;;;;;;;30.25;5.93;;;11.40;99.90;;;;;;4142817;28;20336;-73
2023/01/05 10:32:12;;;;;;;27.35;5.78;;;11.40;99.90;;;;;;4141264;28;20042;-73
2023/01/05 10:34:21;;;;;;;29.52;6.65;;;11.40;99.90;;;;;;4139444;28;20042;-73
2023/01/05 10:36:45;;;;;;;23.23;5.25;;;11.50;99.90;;;;;;4141131;28;20045;-73
2023/01/05 10:39:01;;;;;;;33.78;6.55;;;11.50;99.90;;;;;;4138163;28;20503;-73
2023/01/05 10:41:15;;;;;;;23.52;4.88;;;11.50;99.90;;;;;;4135129;28;20038;-73
2023/01/05 10:43:34;;;;;;;30.58;6.57;;;11.50;99.90;;;;;;4128208;28;20038;-74
2023/01/05 10:45:35;;;;;;;25.67;5.70;;;11.50;99.90;;;;;;4138711;28;20049;-68
2023/01/05 10:47:38;;;;;;;33.53;6.90;;;11.50;99.90;;;;;;4140970;28;20046;-73
2023/01/05 10:49:41;;;;;;;29.55;6.05;;;11.50;99.90;;;;;;4140390;28;20045;-74
2023/01/05 10:51:42;;;;;;;34.60;7.45;;;11.50;99.90;;;;;;4140823;28;20126;-73
2023/01/05 10:53:44;;;;;;;29.33;5.32;;;11.50;99.90;;;;;;4140520;28;20476;-72
2023/01/05 10:56:09;;;;;;;23.52;5.57;;;11.50;99.90;;;;;;4139959;28;20572;-73
2023/01/05 10:58:21;;;;;;;25.65;6.07;;;11.50;99.90;;;;;;4123919;28;20047;-70
2023/01/05 11:00:40;;;;;;;29.38;5.60;;;11.50;99.90;;;;;;4168189;28;20512;-73
2023/01/05 11:02:57;;;;;;;24.38;5.07;;;11.50;99.90;;;;;;4133608;28;20125;-73
2023/01/05 11:05:06;;;;;;;22.95;5.07;;;11.60;99.90;;;;;;4134544;28;20053;-73
2023/01/05 11:07:07;;;;;;;18.52;4.75;;;11.60;99.90;;;;;;4136034;28;20647;-73
2023/01/05 11:09:17;;;;;;;23.33;5.18;;;11.60;99.90;;;;;;4140799;28;20068;-73